createdAt,value
2023-02-12T00:09:25.893Z,102440.06
2023-02-12T00:26:19.376Z,102461.25
2023-02-12T00:33:59.409Z,102463.09
2023-02-12T05:41:23.499Z,102629.00
2023-02-12T05:44:17.875Z,102629.81
2023-02-12T05:46:44.692Z,102639.44
2023-02-12T05:49:29.476Z,102641.97
2023-02-12T05:52:04.745Z,102644.72
2023-02-12T05:54:31.397Z,102648.97
2023-02-12T05:56:58.032Z,102655.16
2023-02-12T05:59:25.204Z,102651.63
2023-02-12T06:01:52.784Z,102653.38
2023-02-12T06:07:19.173Z,102658.75
2023-02-12T06:09:46.988Z,102657.00
2023-02-12T06:12:14.241Z,102657.00
2023-02-12T06:14:42.488Z,102662.38
2023-02-12T06:17:09.537Z,102660.66
2023-02-12T06:19:37.290Z,102669.34
2023-02-12T06:22:04.999Z,102665.84
2023-02-12T06:24:33.012Z,102677.34
2023-02-12T06:26:59.732Z,102679.97
2023-02-12T06:29:26.727Z,102680.84
2023-02-12T06:31:53.583Z,102679.97
2023-02-12T06:34:20.354Z,102687.00
2023-02-12T06:36:48.050Z,102700.22
2023-02-12T06:39:16.620Z,102698.50
2023-02-12T06:41:44.137Z,102716.97
2023-02-12T06:44:11.951Z,102712.59
2023-02-12T06:46:39.224Z,102709.88
2023-02-12T06:49:05.977Z,102702.91
2023-02-12T06:51:32.704Z,102716.91
2023-02-12T06:53:59.476Z,102717.84
2023-02-12T06:56:26.848Z,102718.72
2023-02-12T06:58:56.392Z,102723.19
2023-02-12T07:01:26.954Z,102725.81
2023-02-12T07:03:56.513Z,102730.22
2023-02-12T07:06:24.070Z,102724.97
2023-02-12T07:08:51.240Z,102724.13
2023-02-12T07:11:18.650Z,102722.34
2023-02-12T07:13:45.810Z,102734.66
2023-02-12T07:16:15.779Z,102737.25
2023-02-12T07:18:43.630Z,102737.25
2023-02-12T07:21:12.190Z,102744.25
2023-02-12T07:23:40.579Z,102743.38
2023-02-12T07:26:13.028Z,102745.97
2023-02-12T07:28:40.478Z,102748.59
2023-02-12T07:31:09.661Z,102745.88
2023-02-12T07:33:37.074Z,102744.97
2023-02-12T07:36:06.205Z,102745.78
2023-02-12T07:38:36.180Z,102744.88
2023-02-12T07:41:16.074Z,102754.56
2023-02-12T07:43:44.321Z,102748.41
2023-02-12T07:46:17.303Z,102749.22
2023-02-12T07:48:45.121Z,102749.16
2023-02-12T07:51:14.822Z,102750.88
2023-02-12T07:53:42.019Z,102749.03
2023-02-12T07:56:14.164Z,102756.91
2023-02-12T07:58:42.741Z,102760.44
2023-02-12T08:01:29.719Z,102761.38
2023-02-12T08:04:02.186Z,102758.63
2023-02-12T08:06:31.539Z,102763.03
2023-02-12T08:09:00.396Z,102759.53
2023-02-12T08:11:28.580Z,102762.28
2023-02-12T08:13:55.765Z,102769.31
2023-02-12T08:16:24.427Z,102771.13
2023-02-12T08:18:51.829Z,102775.47
2023-02-12T08:21:26.582Z,102779.88
2023-02-12T08:23:59.528Z,102776.28
2023-02-12T08:26:29.153Z,102775.34
2023-02-12T08:29:04.221Z,102788.47
2023-02-12T08:31:36.139Z,102790.31
2023-02-12T08:34:03.259Z,102786.75
2023-02-12T08:36:40.288Z,102791.13
2023-02-12T08:39:08.328Z,102792.84
2023-02-12T08:41:35.392Z,102797.25
2023-02-12T08:44:03.792Z,102797.22
2023-02-12T08:46:33.941Z,102801.69
2023-02-12T08:49:03.195Z,102807.81
2023-02-12T08:51:32.919Z,102808.63
2023-02-12T08:54:01.938Z,102806.81
2023-02-12T08:56:30.311Z,102807.66
2023-02-12T08:59:01.329Z,102820.88
2023-02-12T09:01:30.228Z,102826.97
2023-02-12T09:03:57.184Z,102822.59
2023-02-12T09:06:25.578Z,102819.00
2023-02-12T09:08:53.560Z,102833.88
2023-02-12T09:11:32.798Z,102830.31
2023-02-12T09:14:01.612Z,102840.00
2023-02-12T09:16:29.784Z,102841.78
2023-02-12T09:18:57.113Z,102837.34
2023-02-12T09:21:24.266Z,102838.22
2023-02-12T09:23:52.370Z,102847.75
2023-02-12T09:26:21.826Z,102849.59
2023-02-12T09:28:50.195Z,102846.06
2023-02-12T09:31:23.321Z,102853.16
2023-02-12T09:33:53.374Z,102850.50
2023-02-12T09:36:21.694Z,102861.09
2023-02-12T09:38:49.427Z,102860.13
2023-02-12T09:41:24.471Z,102853.94
2023-02-12T09:44:03.501Z,102861.84
2023-02-12T09:46:33.553Z,102858.19
2023-02-12T09:49:15.406Z,102850.03
2023-02-12T09:51:44.341Z,102858.09
2023-02-12T09:54:14.750Z,102848.34
2023-02-12T09:56:45.122Z,102862.44
2023-02-12T09:59:13.450Z,102863.31
2023-02-12T10:01:40.211Z,102859.88
2023-02-12T10:04:07.246Z,102866.97
2023-02-12T10:06:42.101Z,102866.06
2023-02-12T10:09:45.438Z,102866.13
2023-02-12T10:12:36.573Z,102869.63
2023-02-12T10:15:32.646Z,102867.88
2023-02-12T10:18:22.235Z,102861.78
2023-02-12T10:21:10.744Z,102859.16
2023-02-12T10:23:57.143Z,102867.19
2023-02-12T10:26:32.160Z,102860.16
2023-02-12T10:29:05.850Z,102865.44
2023-02-12T10:31:36.349Z,102859.25
2023-02-12T10:34:16.408Z,102851.25
2023-02-12T10:36:45.061Z,102853.91
2023-02-12T10:39:14.873Z,102858.25
2023-02-12T10:41:47.957Z,102850.38
2023-02-12T10:44:14.762Z,102857.38
2023-02-12T10:46:41.626Z,102853.78
2023-02-12T10:49:12.439Z,102858.91
2023-02-12T10:51:41.674Z,102859.91
2023-02-12T10:54:44.003Z,102854.63
2023-02-12T10:57:14.572Z,102854.56
2023-02-12T10:59:43.595Z,102853.72
2023-02-12T11:02:31.459Z,102856.31
2023-02-12T11:04:59.884Z,102856.34
2023-02-12T11:07:27.910Z,102848.41
2023-02-12T11:09:56.305Z,102860.69
2023-02-12T11:12:38.671Z,102851.06
2023-02-12T11:15:15.714Z,102853.72
2023-02-12T11:17:44.943Z,102853.75
2023-02-12T11:20:17.860Z,102844.97
2023-02-12T11:23:00.013Z,102859.06
2023-02-12T11:25:35.224Z,102865.31
2023-02-12T11:28:17.948Z,102862.69
2023-02-12T11:31:01.518Z,102856.56
2023-02-12T11:33:34.886Z,102854.00
2023-02-12T11:36:19.791Z,102859.38
2023-02-12T11:38:52.514Z,102848.78
2023-02-12T11:41:28.435Z,102843.41
2023-02-12T11:43:55.206Z,102848.56
2023-02-12T11:46:24.722Z,102849.41
2023-02-12T11:48:53.139Z,102852.94
2023-02-12T11:51:22.354Z,102841.53
2023-02-12T11:53:51.613Z,102848.47
2023-02-12T11:56:18.679Z,102836.13
2023-02-12T11:58:47.564Z,102843.16
2023-02-12T12:01:22.562Z,102843.25
2023-02-12T12:04:06.694Z,102846.03
2023-02-12T12:06:41.236Z,102839.81
2023-02-12T12:09:25.213Z,102839.81
2023-02-12T12:11:59.408Z,102836.38
2023-02-12T12:14:59.783Z,102834.47
2023-02-12T12:17:55.423Z,102836.03
2023-02-12T12:20:25.423Z,102826.97
2023-02-12T12:23:32.467Z,102825.94
2023-02-12T12:26:21.380Z,102820.56
2023-02-12T12:28:52.667Z,102815.06
2023-02-12T12:31:27.784Z,102814.88
2023-02-12T12:34:36.125Z,102813.81
2023-02-12T12:37:02.889Z,102814.84
2023-02-12T12:39:55.685Z,102811.31
2023-02-12T12:42:36.246Z,102813.00
2023-02-12T12:45:31.026Z,102808.47
2023-02-12T12:48:22.840Z,102802.41
2023-02-12T12:50:59.018Z,102803.19
2023-02-12T12:53:41.042Z,102807.53
2023-02-12T12:56:07.995Z,102804.88
2023-02-12T12:58:40.606Z,102812.75
2023-02-12T13:01:25.047Z,102803.56
2023-02-12T13:04:19.589Z,102818.59
2023-02-12T13:06:53.676Z,102805.19
2023-02-12T13:09:30.089Z,102793.84
2023-02-12T13:12:20.003Z,102805.19
2023-02-12T13:14:58.863Z,102794.28
2023-02-12T13:17:41.523Z,102797.88
2023-02-12T13:20:26.866Z,102791.00
2023-02-12T13:22:57.138Z,102792.72
2023-02-12T13:25:35.878Z,102783.91
2023-02-12T13:28:03.569Z,102795.44
2023-02-12T13:30:34.266Z,102790.94
2023-02-12T13:33:27.705Z,102786.50
2023-02-12T13:36:01.081Z,102781.13
2023-02-12T13:38:35.159Z,102767.38
2023-02-12T13:41:06.171Z,102771.41
2023-02-12T13:43:51.928Z,102774.25
2023-02-12T13:46:41.322Z,102773.38
2023-02-12T13:49:39.152Z,102772.50
2023-02-12T13:52:11.338Z,102774.22
2023-02-12T13:54:44.198Z,102767.44
2023-02-12T13:57:16.844Z,102776.38
2023-02-12T13:59:49.266Z,102775.63
2023-02-12T14:02:27.695Z,102770.47
2023-02-12T14:05:01.078Z,102773.19
2023-02-12T14:07:45.973Z,102779.31
2023-02-12T14:10:34.725Z,102772.25
2023-02-12T14:13:22.549Z,102768.63
2023-02-12T14:15:52.188Z,102776.38
2023-02-12T14:18:32.760Z,102769.44
2023-02-12T14:21:11.608Z,102768.63
2023-02-12T14:23:39.946Z,102769.63
2023-02-12T14:26:11.113Z,102768.78
2023-02-12T14:29:04.968Z,102762.78
2023-02-12T14:31:33.329Z,102767.13
2023-02-12T14:34:06.397Z,102770.69
2023-02-12T14:36:33.164Z,102761.88
2023-02-12T14:39:03.922Z,102770.69
2023-02-12T14:41:41.789Z,102774.22
2023-02-12T14:44:17.759Z,102774.28
2023-02-12T14:46:47.058Z,102781.31
2023-02-12T14:49:21.930Z,102780.53
2023-02-12T14:52:06.738Z,102781.59
2023-02-12T14:54:51.514Z,102769.44
2023-02-12T14:57:34.031Z,102771.16
2023-02-12T15:00:16.717Z,102773.19
2023-02-12T15:03:12.770Z,102766.16
2023-02-12T15:05:56.640Z,102771.31
2023-02-12T15:08:36.320Z,102762.56
2023-02-12T15:11:28.222Z,102770.72
2023-02-12T15:13:59.270Z,102771.69
2023-02-12T15:16:49.924Z,102776.13
2023-02-12T15:19:39.315Z,102778.81
2023-02-12T15:22:36.703Z,102780.53
2023-02-12T15:25:26.436Z,102774.38
2023-02-12T15:28:22.259Z,102777.91
2023-02-12T15:30:49.239Z,102781.53
2023-02-12T15:33:28.423Z,102776.97
2023-02-12T15:35:55.998Z,102773.53
2023-02-12T15:38:33.806Z,102783.25
2023-02-12T15:41:01.809Z,102785.84
2023-02-12T15:43:31.999Z,102787.53
2023-02-12T15:45:59.030Z,102788.53
2023-02-12T15:48:31.728Z,102782.47
2023-02-12T15:51:01.417Z,102781.59
2023-02-12T15:53:32.225Z,102784.28
2023-02-12T15:55:59.526Z,102795.88
2023-02-12T15:58:29.631Z,102802.00
2023-02-12T16:01:02.195Z,102798.50
2023-02-12T16:03:34.815Z,102795.84
2023-02-12T16:06:16.929Z,102798.50
2023-02-12T16:09:08.524Z,102798.53
2023-02-12T16:11:37.040Z,102798.53
2023-02-12T16:14:40.991Z,102803.81
2023-02-12T16:17:28.776Z,102805.69
2023-02-12T16:20:00.702Z,102809.25
2023-02-12T16:22:37.964Z,102817.16
2023-02-12T16:25:15.530Z,102810.97
2023-02-12T16:27:51.638Z,102810.97
2023-02-12T16:30:34.387Z,102805.78
2023-02-12T16:33:02.046Z,102811.91
2023-02-12T16:35:34.278Z,102811.94
2023-02-12T16:38:29.087Z,102826.94
2023-02-12T16:41:20.072Z,102822.56
2023-02-12T16:43:48.581Z,102817.25
2023-02-12T16:46:17.926Z,102827.81
2023-02-12T16:48:52.383Z,102826.06
2023-02-12T16:51:30.943Z,102827.88
2023-02-12T16:54:00.373Z,102833.16
2023-02-12T16:56:39.065Z,102832.38
2023-02-12T16:59:05.870Z,102828.84
2023-02-12T17:01:35.937Z,102828.84
2023-02-12T17:04:06.908Z,102833.28
2023-02-12T17:06:33.842Z,102837.75
2023-02-12T17:09:00.979Z,102835.16
2023-02-12T17:11:29.151Z,102827.16
2023-02-12T17:13:56.834Z,102836.09
2023-02-12T17:16:32.182Z,102833.41
2023-02-12T17:19:00.372Z,102835.25
2023-02-12T17:21:38.455Z,102837.03
2023-02-12T17:24:20.111Z,102838.06
2023-02-12T17:26:47.076Z,102843.28
2023-02-12T17:29:13.799Z,102844.16
2023-02-12T17:31:40.753Z,102845.09
2023-02-12T17:34:08.034Z,102842.50
2023-02-12T17:36:35.341Z,102850.47
2023-02-12T17:39:04.694Z,102854.88
2023-02-12T17:41:31.542Z,102854.09
2023-02-12T17:43:58.314Z,102845.34
2023-02-12T17:46:27.224Z,102856.78
2023-02-12T17:48:54.215Z,102860.31
2023-02-12T17:51:21.054Z,102861.28
2023-02-12T17:53:47.990Z,102864.81
2023-02-12T17:56:17.753Z,102870.19
2023-02-12T17:58:47.337Z,102871.94
2023-02-12T18:01:16.970Z,102872.91
2023-02-12T18:03:43.999Z,102861.47
2023-02-12T18:06:14.249Z,102870.25
2023-02-12T18:08:41.428Z,102872.00
2023-02-12T18:11:10.589Z,102872.00
2023-02-12T18:13:38.105Z,102870.25
2023-02-12T18:16:09.133Z,102879.94
2023-02-12T18:18:36.784Z,102879.94
2023-02-12T18:21:08.796Z,102876.34
2023-02-12T18:23:35.675Z,102874.56
2023-02-12T18:26:06.221Z,102863.09
2023-02-12T18:28:33.396Z,102871.03
2023-02-12T18:31:00.894Z,102871.94
2023-02-12T18:33:28.406Z,102875.41
2023-02-12T18:36:04.432Z,102870.09
2023-02-12T18:38:31.186Z,102871.00
2023-02-12T18:40:59.861Z,102875.34
2023-02-12T18:43:27.557Z,102866.50
2023-02-12T18:45:55.357Z,102864.81
2023-02-12T18:48:22.278Z,102859.50
2023-02-12T18:50:51.857Z,102865.63
2023-02-12T18:53:19.283Z,102862.03
2023-02-12T18:55:46.589Z,102857.63
2023-02-12T18:58:13.283Z,102857.59
2023-02-12T19:00:40.184Z,102850.53
2023-02-12T19:03:06.963Z,102855.84
2023-02-12T19:05:33.812Z,102852.22
2023-02-12T19:08:00.599Z,102853.09
2023-02-12T19:10:27.690Z,102847.88
2023-02-12T19:12:55.544Z,102844.34
2023-02-12T19:15:22.981Z,102854.09
2023-02-12T19:17:49.812Z,102850.53
2023-02-12T19:20:17.018Z,102855.84
2023-02-12T19:22:45.284Z,102850.56
2023-02-12T19:25:13.165Z,102850.56
2023-02-12T19:27:39.924Z,102854.06
2023-02-12T19:30:08.049Z,102861.13
2023-02-12T19:32:36.839Z,102859.41
2023-02-12T19:35:04.226Z,102857.66
2023-02-12T19:37:32.070Z,102871.78
2023-02-12T19:39:58.799Z,102867.38
2023-02-12T19:42:25.863Z,102862.97
2023-02-12T19:44:52.535Z,102862.97
2023-02-12T19:47:19.279Z,102864.75
2023-02-12T19:49:46.302Z,102862.09
2023-02-12T19:52:13.451Z,102862.97
2023-02-12T19:54:40.145Z,102866.44
2023-02-12T19:57:09.365Z,102857.63
2023-02-12T19:59:36.718Z,102857.69
2023-02-12T20:02:04.158Z,102857.69
2023-02-12T20:04:31.311Z,102848.00
2023-02-12T20:06:59.084Z,102858.63
2023-02-12T20:09:26.029Z,102864.88
2023-02-12T20:11:53.460Z,102854.28
2023-02-12T20:14:23.061Z,102861.28
2023-02-12T20:16:51.747Z,102862.28
2023-02-12T20:19:22.418Z,102860.53
2023-02-12T20:21:54.381Z,102862.28
2023-02-12T20:24:26.952Z,102864.94
2023-02-12T20:26:54.184Z,102860.53
2023-02-12T20:29:21.394Z,102852.66
2023-02-12T20:31:48.447Z,102860.56
2023-02-12T20:34:16.853Z,102856.13
2023-02-12T20:36:48.017Z,102857.94
2023-02-12T20:39:17.851Z,102858.84
2023-02-12T20:41:44.538Z,102850.97
2023-02-12T20:44:16.115Z,102853.66
2023-02-12T20:46:54.515Z,102851.97
2023-02-12T20:49:25.300Z,102849.38
2023-02-12T20:51:52.758Z,102851.09
2023-02-12T20:54:19.616Z,102851.94
2023-02-12T20:56:46.395Z,102849.25
2023-02-12T20:59:13.219Z,102847.50
2023-02-12T21:01:41.660Z,102842.25
2023-02-12T21:04:13.947Z,102839.66
2023-02-12T21:06:41.752Z,102835.25
2023-02-12T21:09:12.118Z,102842.25
2023-02-12T21:11:40.126Z,102841.38
2023-02-12T21:14:24.140Z,102836.16
2023-02-12T21:16:52.392Z,102837.00
2023-02-12T21:19:19.105Z,102840.59
2023-02-12T21:21:46.239Z,102841.47
2023-02-12T21:24:16.020Z,102846.78
2023-02-12T21:26:42.837Z,102835.34
2023-02-12T21:29:12.281Z,102833.53
2023-02-12T21:31:41.438Z,102834.41
2023-02-12T21:34:09.728Z,102831.78
2023-02-12T21:36:38.449Z,102833.50
2023-02-12T21:39:07.328Z,102824.72
2023-02-12T21:41:36.127Z,102822.91
2023-02-12T21:44:08.298Z,102823.84
2023-02-12T21:46:35.888Z,102827.31
2023-02-12T21:49:03.732Z,102826.47
2023-02-12T21:51:39.592Z,102822.03
2023-02-12T21:54:08.726Z,102822.91
2023-02-12T21:56:39.828Z,102816.72
2023-02-12T21:59:09.092Z,102827.25
2023-02-12T22:01:39.740Z,102820.25
2023-02-12T22:04:07.298Z,102829.94
2023-02-12T22:06:40.714Z,102829.97
2023-02-12T22:09:09.266Z,102833.50
2023-02-12T22:11:37.425Z,102829.94
2023-02-12T22:14:04.968Z,102829.94
2023-02-12T22:16:31.928Z,102833.47
2023-02-12T22:19:00.595Z,102832.56
2023-02-12T22:21:30.761Z,102822.91
2023-02-12T22:23:57.780Z,102821.16
2023-02-12T22:26:26.684Z,102829.03
2023-02-12T22:28:56.682Z,102828.19
2023-02-12T22:31:26.134Z,102828.22
2023-02-12T22:33:55.324Z,102829.97
2023-02-12T22:36:22.173Z,102829.09
2023-02-12T22:38:49.331Z,102820.28
2023-02-12T22:41:16.393Z,102826.44
2023-02-12T22:43:43.194Z,102825.56
2023-02-12T22:46:11.952Z,102822.03
2023-02-12T22:48:38.965Z,102822.91
2023-02-12T22:51:11.276Z,102832.63
2023-02-12T22:53:38.097Z,102817.63
2023-02-12T22:56:06.132Z,102821.16
2023-02-12T22:58:34.085Z,102820.28
2023-02-12T23:01:15.267Z,102832.59
2023-02-12T23:03:42.462Z,102826.38
2023-02-12T23:06:13.213Z,102836.97
2023-02-12T23:08:40.501Z,102834.34
2023-02-12T23:11:08.569Z,102824.66
2023-02-12T23:13:36.181Z,102832.56
2023-02-12T23:16:03.576Z,102825.50
2023-02-12T23:18:31.188Z,102831.66
2023-02-12T23:20:58.479Z,102834.28
2023-02-12T23:23:25.505Z,102841.31
2023-02-12T23:25:55.274Z,102835.13
2023-02-12T23:28:22.976Z,102829.81
2023-02-12T23:30:51.150Z,102831.59
2023-02-12T23:33:19.206Z,102822.75
2023-02-12T23:35:46.441Z,102828.03
2023-02-12T23:38:13.424Z,102824.53
2023-02-12T23:40:40.538Z,102829.88
2023-02-12T23:43:07.427Z,102833.44
2023-02-12T23:45:34.380Z,102822.84
2023-02-12T23:48:01.786Z,102837.75
2023-02-12T23:50:30.974Z,102836.06
2023-02-12T23:52:58.741Z,102829.88
2023-02-12T23:55:25.396Z,102818.47
2023-02-12T23:57:52.104Z,102824.53
